Time;durP1;ratioP1;P1;durP2;ratioP2;P2;SDS_P1;SDS_P2;PMS_P1;PMS_P2;Temp;Humidity;BMP_temperature;BMP_pressure;BME280_temperature;BME280_humidity;BME280_pressure;Samples;Min_cycle;Max_cycle;Signal;HPM_P1;HPM_P2
2022/06/27 00:11:26;;;;;;;6.10;5.50;;;18.70;99.90;;;;;;2612445;54;21066;-78
2022/06/27 00:17:13;;;;;;;7.47;6.80;;;18.80;99.90;;;;;;2612073;54;20691;-78
2022/06/27 00:23:00;;;;;;;7.43;6.60;;;18.80;99.90;;;;;;2611281;54;20232;-77
2022/06/27 00:28:47;;;;;;;6.87;6.27;;;18.60;99.90;;;;;;2613548;54;20183;-76
2022/06/27 00:34:35;;;;;;;7.70;7.07;;;18.60;99.90;;;;;;2611486;54;20136;-77
2022/06/27 00:40:22;;;;;;;7.53;6.90;;;18.80;99.90;;;;;;2613193;54;20127;-76
2022/06/27 00:46:10;;;;;;;6.40;5.90;;;18.90;99.90;;;;;;2612909;54;20646;-76
2022/06/27 00:51:58;;;;;;;7.67;6.87;;;18.40;99.90;;;;;;2613547;54;20463;-77
2022/06/27 00:57:47;;;;;;;7.10;6.50;;;18.30;99.90;;;;;;2613420;54;20397;-77
2022/06/27 01:03:50;;;;;;;8.20;7.40;;;18.30;99.90;;;;;;2612039;54;20462;-72
2022/06/27 01:09:38;;;;;;;7.13;6.43;;;18.50;99.90;;;;;;2612079;54;20173;-74
2022/06/27 01:15:26;;;;;;;7.87;7.07;;;18.50;99.90;;;;;;2611313;54;20424;-74
2022/06/27 01:21:20;;;;;;;7.83;7.10;;;18.30;99.90;;;;;;2612099;54;20393;-73
2022/06/27 01:27:07;;;;;;;9.90;7.40;;;18.40;99.90;;;;;;2612998;54;20393;-73
2022/06/27 01:32:54;;;;;;;7.63;6.90;;;18.60;99.90;;;;;;2612734;54;20400;-75
2022/06/27 01:38:42;;;;;;;8.00;7.03;;;18.50;99.90;;;;;;2609976;54;20132;-74
2022/06/27 01:44:31;;;;;;;7.13;6.53;;;18.60;99.90;;;;;;2610590;54;20990;-74
2022/06/27 01:50:23;;;;;;;7.53;6.93;;;18.30;99.90;;;;;;2610324;39;21081;-74
2022/06/27 01:56:11;;;;;;;13.03;8.13;;;18.00;99.90;;;;;;2610345;54;20443;-74
2022/06/27 02:05:21;;;;;;;8.10;7.40;;;18.10;99.90;;;;;;2610433;54;20413;-74
2022/06/27 02:11:08;;;;;;;9.43;8.40;;;18.10;99.90;;;;;;2610574;54;20158;-74
2022/06/27 02:16:56;;;;;;;8.37;7.67;;;18.30;99.90;;;;;;2610309;54;20310;-73
2022/06/27 02:22:44;;;;;;;7.93;7.23;;;18.50;99.90;;;;;;2611549;54;20262;-73
2022/06/27 02:28:33;;;;;;;8.17;7.47;;;18.40;99.90;;;;;;2609283;54;20671;-74
2022/06/27 02:34:21;;;;;;;8.07;7.37;;;18.20;99.90;;;;;;2610203;47;20436;-74
2022/06/27 02:40:09;;;;;;;9.03;8.27;;;18.20;99.90;;;;;;2609722;39;20622;-75
2022/06/27 02:45:57;;;;;;;11.27;8.03;;;18.10;99.90;;;;;;2609204;54;20425;-75
2022/06/27 02:52:12;;;;;;;8.07;7.27;;;18.10;99.90;;;;;;2609557;54;20137;-76
2022/06/27 03:14:40;;;;;;;9.50;8.50;;;17.90;99.90;;;;;;2608270;54;20581;-76
2022/06/27 03:20:28;;;;;;;8.80;8.00;;;17.80;99.90;;;;;;2608797;54;20159;-76
2022/06/27 03:26:17;;;;;;;10.50;9.33;;;18.00;99.90;;;;;;2608855;54;21603;-76
2022/06/27 03:35:26;;;;;;;13.27;10.90;;;17.90;99.90;;;;;;2608763;54;20430;-76
2022/06/27 03:38:29;;;;;;;13.37;10.97;;;17.90;99.90;;;;;;2608377;54;20533;-75
2022/06/27 03:51:12;;;;;;;11.90;10.60;;;18.20;99.90;;;;;;2613692;54;20402;-75
2022/06/27 03:56:59;;;;;;;11.47;10.40;;;18.00;99.90;;;;;;2613121;39;20599;-76
2022/06/27 04:02:47;;;;;;;10.70;9.70;;;18.10;99.90;;;;;;2612348;39;20286;-75
2022/06/27 04:08:34;;;;;;;12.50;10.83;;;18.00;99.90;;;;;;2612811;54;20137;-76
2022/06/27 04:14:21;;;;;;;11.63;10.53;;;18.20;99.90;;;;;;2611711;54;20166;-76
2022/06/27 04:20:08;;;;;;;12.30;11.10;;;18.20;99.90;;;;;;2610079;39;20631;-74
2022/06/27 04:25:56;;;;;;;12.17;11.07;;;18.20;99.90;;;;;;2612197;54;20434;-75
2022/06/27 04:31:44;;;;;;;13.20;12.00;;;18.20;99.90;;;;;;2613448;46;20156;-75
2022/06/27 04:37:32;;;;;;;14.53;12.50;;;18.20;99.90;;;;;;2612276;54;20168;-76
2022/06/27 04:43:20;;;;;;;12.00;10.87;;;18.30;99.90;;;;;;2614328;54;20233;-75
2022/06/27 04:49:08;;;;;;;13.10;11.63;;;18.20;99.90;;;;;;2612456;54;20673;-76
2022/06/27 04:54:56;;;;;;;11.67;10.57;;;18.50;99.90;;;;;;2613023;54;21062;-75
2022/06/27 05:00:44;;;;;;;12.73;11.50;;;18.40;99.90;;;;;;2614303;39;20524;-75
2022/06/27 05:06:32;;;;;;;13.20;12.00;;;18.40;99.90;;;;;;2613155;54;20386;-75
2022/06/27 05:12:20;;;;;;;13.53;12.23;;;18.30;99.90;;;;;;2614607;54;20218;-76
2022/06/27 05:18:08;;;;;;;12.70;11.07;;;18.20;99.90;;;;;;2612908;54;20141;-73
2022/06/27 05:23:56;;;;;;;13.27;11.50;;;18.50;99.90;;;;;;2613168;46;20151;-76
2022/06/27 05:29:45;;;;;;;11.90;10.77;;;18.50;99.90;;;;;;2608326;54;20395;-79
2022/06/27 05:35:33;;;;;;;11.50;10.30;;;18.40;99.90;;;;;;2608501;54;20959;-77
2022/06/27 05:41:21;;;;;;;10.83;9.83;;;18.60;99.90;;;;;;2609222;54;20399;-76
2022/06/27 05:47:09;;;;;;;10.40;9.40;;;19.20;99.90;;;;;;2607874;54;20414;-77
2022/06/27 05:52:59;;;;;;;10.00;9.03;;;19.30;99.90;;;;;;2608343;54;21242;-77
2022/06/27 05:58:48;;;;;;;9.00;8.10;;;19.20;99.90;;;;;;2609464;54;20978;-77
2022/06/27 06:04:36;;;;;;;9.40;8.60;;;19.50;99.90;;;;;;2609800;54;20427;-77
2022/06/27 06:10:25;;;;;;;9.97;9.07;;;19.30;99.90;;;;;;2609062;54;21226;-77
2022/06/27 06:16:16;;;;;;;11.43;10.00;;;19.20;99.90;;;;;;2609003;39;20768;-76
2022/06/27 06:22:05;;;;;;;9.43;8.63;;;19.20;99.90;;;;;;2609544;54;20795;-77
2022/06/27 06:27:56;;;;;;;12.93;10.30;;;19.30;99.90;;;;;;2609764;54;20444;-76
2022/06/27 06:33:44;;;;;;;12.30;9.80;;;19.00;99.90;;;;;;2609617;54;20381;-76
2022/06/27 06:39:32;;;;;;;12.23;11.10;;;18.70;99.90;;;;;;2608694;46;21202;-76
2022/06/27 06:45:20;;;;;;;12.03;10.83;;;18.70;99.90;;;;;;2609884;54;20392;-76
2022/06/27 06:51:12;;;;;;;11.07;9.97;;;18.80;99.90;;;;;;2614714;39;20509;-77
2022/06/27 06:57:00;;;;;;;12.17;10.97;;;18.80;99.90;;;;;;2614094;54;20395;-76
2022/06/27 07:03:07;;;;;;;12.67;10.77;;;18.70;99.90;;;;;;2610532;54;20189;-77
2022/06/27 07:08:57;;;;;;;12.57;11.37;;;18.90;99.90;;;;;;2612188;54;20432;-76
2022/06/27 07:14:58;;;;;;;13.77;12.47;;;19.10;99.90;;;;;;2612701;54;20410;-76
2022/06/27 07:20:45;;;;;;;12.37;11.07;;;19.20;99.90;;;;;;2612133;54;20473;-77
2022/06/27 07:26:32;;;;;;;17.23;14.17;;;18.90;99.90;;;;;;2608872;46;20137;-76
2022/06/27 07:32:20;;;;;;;12.37;11.27;;;18.80;99.90;;;;;;2607025;54;20430;-76
2022/06/27 07:41:32;;;;;;;12.37;11.17;;;19.10;99.90;;;;;;2608889;39;21186;-77
2022/06/27 07:47:19;;;;;;;11.77;10.70;;;18.90;99.90;;;;;;2607636;54;20405;-77
2022/06/27 07:53:17;;;;;;;14.77;11.43;;;18.90;99.90;;;;;;2610994;54;20288;-77
2022/06/27 07:59:09;;;;;;;12.17;10.97;;;18.90;99.90;;;;;;2608396;54;21388;-77
2022/06/27 08:04:58;;;;;;;12.93;11.70;;;19.10;99.90;;;;;;2608768;54;20920;-76
2022/06/27 08:14:12;;;;;;;10.80;9.40;;;19.60;99.90;;;;;;2607009;54;21015;-76
2022/06/27 08:19:59;;;;;;;9.90;9.00;;;20.10;99.90;;;;;;2607681;54;20581;-77
2022/06/27 08:25:47;;;;;;;12.70;11.43;;;20.70;99.90;;;;;;2612032;54;20398;-76
2022/06/27 08:31:37;;;;;;;15.47;13.97;;;20.90;99.90;;;;;;2613296;54;20400;-77
2022/06/27 08:37:26;;;;;;;15.77;14.27;;;20.50;99.90;;;;;;2609379;54;20391;-77
2022/06/27 08:43:14;;;;;;;15.67;14.00;;;20.30;99.90;;;;;;2609029;54;20398;-76
2022/06/27 08:49:04;;;;;;;14.53;12.80;;;20.40;99.90;;;;;;2610087;39;20489;-76
2022/06/27 08:54:52;;;;;;;12.93;11.73;;;20.60;99.90;;;;;;2641796;36;21053;-76
2022/06/27 09:00:45;;;;;;;12.00;10.90;;;20.40;99.90;;;;;;2609223;54;20402;-76
2022/06/27 09:19:52;;;;;;;12.90;11.47;;;19.80;99.90;;;;;;2608906;54;20401;-76
2022/06/27 09:25:40;;;;;;;11.90;10.77;;;19.80;99.90;;;;;;2610156;31;20850;-77
2022/06/27 09:31:32;;;;;;;11.70;10.73;;;19.80;99.90;;;;;;2608807;54;20182;-77
2022/06/27 09:37:19;;;;;;;12.73;11.40;;;20.00;99.90;;;;;;2611861;54;20399;-77
2022/06/27 09:40:23;;;;;;;12.97;11.77;;;20.10;99.90;;;;;;2614152;39;20811;-77
2022/06/27 09:42:52;;;;;;;13.40;12.00;;;20.20;99.90;;;;;;2612766;39;20881;-77
2022/06/27 09:48:44;;;;;;;12.47;11.30;;;20.40;99.90;;;;;;2609262;54;20399;-77
2022/06/27 09:54:33;;;;;;;13.80;12.60;;;20.60;99.90;;;;;;2610437;54;21609;-78
2022/06/27 10:00:23;;;;;;;12.50;11.30;;;20.90;99.90;;;;;;2610684;39;20780;-77
2022/06/27 10:06:12;;;;;;;15.10;13.80;;;21.20;99.90;;;;;;2608878;54;20430;-78
2022/06/27 10:12:23;;;;;;;15.30;13.87;;;21.10;99.90;;;;;;2609695;54;20531;-76
2022/06/27 10:18:11;;;;;;;18.30;16.50;;;21.50;99.90;;;;;;2609331;54;20447;-76
2022/06/27 10:30:46;;;;;;;18.57;17.07;;;22.20;99.90;;;;;;2608381;39;20737;-77
2022/06/27 10:36:33;;;;;;;21.00;19.10;;;22.40;99.90;;;;;;2608592;39;20864;-77
2022/06/27 10:42:53;;;;;;;21.67;19.67;;;22.40;99.90;;;;;;2607953;54;20134;-77
2022/06/27 10:48:42;;;;;;;19.37;17.47;;;22.70;95.00;;;;;;2610608;54;21032;-76
2022/06/27 10:54:37;;;;;;;22.50;20.20;;;22.80;75.80;;;;;;2611218;54;20558;-76
2022/06/27 11:00:42;;;;;;;26.83;24.23;;;22.40;83.60;;;;;;2612550;54;20550;-77
2022/06/27 11:06:30;;;;;;;29.23;26.50;;;21.90;93.30;;;;;;2613474;54;20387;-77
2022/06/27 11:12:23;;;;;;;30.13;27.20;;;22.10;92.40;;;;;;2609976;54;20173;-76
2022/06/27 11:18:10;;;;;;;27.50;24.73;;;21.90;92.20;;;;;;2610955;46;20451;-77
2022/06/27 11:24:00;;;;;;;27.03;24.37;;;21.50;95.90;;;;;;2609280;54;20411;-77
2022/06/27 11:32:54;;;;;;;25.60;23.00;;;21.40;99.90;;;;;;2609927;54;20407;-79
2022/06/27 11:35:20;;;;;;;24.40;21.50;;;21.40;99.90;;;;;;2607517;54;20430;-77
2022/06/27 11:41:10;;;;;;;24.50;22.20;;;21.30;99.90;;;;;;2608709;54;20485;-76
2022/06/27 11:53:54;;;;;;;24.40;22.20;;;21.60;99.90;;;;;;2608116;54;20460;-76
2022/06/27 11:59:48;;;;;;;25.57;23.17;;;21.60;99.90;;;;;;2609240;39;20865;-76
2022/06/27 12:05:38;;;;;;;24.80;22.60;;;21.60;99.90;;;;;;2608024;54;20446;-76
2022/06/27 12:11:29;;;;;;;25.13;22.80;;;22.10;99.90;;;;;;2607664;54;20421;-76
2022/06/27 12:17:17;;;;;;;24.27;21.87;;;22.50;96.80;;;;;;2607881;54;20413;-76
2022/06/27 12:23:04;;;;;;;23.90;21.40;;;23.50;80.30;;;;;;2608942;54;20472;-76
2022/06/27 12:28:52;;;;;;;24.20;22.20;;;23.70;54.80;;;;;;2608988;54;20928;-76
2022/06/27 12:34:40;;;;;;;19.90;18.20;;;23.30;56.10;;;;;;2609735;54;20435;-75
2022/06/27 12:40:28;;;;;;;20.13;18.27;;;23.30;55.20;;;;;;2608855;54;20166;-76
2022/06/27 12:46:18;;;;;;;21.70;19.83;;;23.20;61.20;;;;;;2608762;47;20384;-76
2022/06/27 12:52:06;;;;;;;18.87;17.17;;;23.00;64.50;;;;;;2608883;39;20957;-76
2022/06/27 12:57:54;;;;;;;27.43;19.33;;;22.30;70.00;;;;;;2608195;54;20536;-75
2022/06/27 13:03:50;;;;;;;18.10;16.13;;;21.80;76.70;;;;;;2607816;54;20157;-76
2022/06/27 13:09:39;;;;;;;14.30;12.80;;;21.40;74.90;;;;;;2606978;54;20174;-77
2022/06/27 13:15:26;;;;;;;11.40;10.30;;;21.90;66.00;;;;;;2607752;54;20420;-76
2022/06/27 13:21:14;;;;;;;12.50;11.20;;;22.50;45.20;;;;;;2609762;54;20428;-76
2022/06/27 13:27:00;;;;;;;12.00;11.10;;;22.40;43.00;;;;;;2612822;31;20728;-76
2022/06/27 13:32:48;;;;;;;13.93;12.67;;;23.30;36.40;;;;;;2612622;46;20167;-76
2022/06/27 13:38:35;;;;;;;11.97;10.87;;;23.60;27.20;;;;;;2612878;54;20366;-76
2022/06/27 13:44:23;;;;;;;11.57;10.57;;;23.60;25.80;;;;;;2615189;39;20533;-76
2022/06/27 13:50:12;;;;;;;11.73;10.63;;;24.20;25.10;;;;;;2613120;54;20162;-76
2022/06/27 13:55:59;;;;;;;12.80;11.80;;;25.60;15.70;;;;;;2614233;39;20767;-77
2022/06/27 14:12:02;;;;;;;18.50;16.80;;;23.90;16.60;;;;;;2613237;39;20906;-76
2022/06/27 14:17:50;;;;;;;19.93;17.97;;;24.90;14.00;;;;;;2611257;54;20525;-79
2022/06/27 14:23:37;;;;;;;18.83;17.23;;;24.10;18.00;;;;;;2613074;54;20456;-76
2022/06/27 14:29:24;;;;;;;17.17;15.33;;;24.00;23.00;;;;;;2612248;54;20130;-76
2022/06/27 14:35:12;;;;;;;17.20;15.80;;;25.90;12.80;;;;;;2611649;54;20419;-76
2022/06/27 14:40:59;;;;;;;17.30;16.00;;;25.30;14.30;;;;;;2611491;54;20184;-76
2022/06/27 14:46:47;;;;;;;16.00;14.90;;;24.80;18.40;;;;;;2613365;46;20731;-76
2022/06/27 14:52:35;;;;;;;16.93;15.53;;;25.20;16.80;;;;;;2614215;54;20164;-76
2022/06/27 14:58:23;;;;;;;14.53;13.33;;;25.00;16.20;;;;;;2614109;54;20158;-76
2022/06/27 15:14:33;;;;;;;10.73;3.70;;;20.70;28.40;;;;;;2611464;54;20373;-75
2022/06/27 15:20:19;;;;;;;27.67;5.30;;;19.30;62.70;;;;;;2612282;54;20128;-76
2022/06/27 15:26:07;;;;;;;95.83;19.17;;;18.70;85.80;;;;;;2611486;54;20123;-76
2022/06/27 15:31:54;;;;;;;3.30;2.70;;;18.10;99.90;;;;;;2610495;54;20122;-75
2022/06/27 15:37:42;;;;;;;3.87;3.50;;;17.90;99.90;;;;;;2610465;46;20161;-75
2022/06/27 15:40:44;;;;;;;3.70;3.30;;;17.70;99.90;;;;;;2610966;54;20431;-76
2022/06/27 15:43:10;;;;;;;3.73;3.43;;;17.40;99.90;;;;;;2612525;54;20172;-75
2022/06/27 15:48:57;;;;;;;6.93;4.60;;;16.90;99.90;;;;;;2614192;54;20158;-74
2022/06/27 15:54:45;;;;;;;6.47;6.03;;;16.50;99.90;;;;;;2613551;54;20146;-74
2022/06/27 16:00:33;;;;;;;5.70;4.33;;;16.30;99.90;;;;;;2612835;54;20156;-76
2022/06/27 16:06:39;;;;;;;6.17;4.10;;;16.20;99.90;;;;;;2612089;54;20852;-74
2022/06/27 16:12:27;;;;;;;5.30;3.97;;;16.30;99.90;;;;;;2611822;54;20129;-75
2022/06/27 16:18:14;;;;;;;9.90;4.33;;;16.20;99.90;;;;;;2612178;54;20154;-75
2022/06/27 16:24:02;;;;;;;7.20;3.77;;;16.40;99.90;;;;;;2611921;54;20306;-75
2022/06/27 16:29:49;;;;;;;7.37;4.47;;;16.50;99.90;;;;;;2612294;54;20430;-76
2022/06/27 16:35:37;;;;;;;6.50;4.60;;;16.60;99.90;;;;;;2613056;54;20387;-75
2022/06/27 16:41:24;;;;;;;8.10;5.00;;;16.60;99.90;;;;;;2612880;54;20147;-75
2022/06/27 16:47:11;;;;;;;6.37;5.73;;;17.10;99.90;;;;;;2612485;54;20139;-74
2022/06/27 16:52:59;;;;;;;8.00;7.20;;;17.70;99.90;;;;;;2613433;54;20142;-76
2022/06/27 16:58:45;;;;;;;7.60;6.93;;;17.80;99.90;;;;;;2612330;54;20228;-75
2022/06/27 17:07:55;;;;;;;10.23;9.33;;;17.70;99.90;;;;;;2614075;54;20408;-76
2022/06/27 17:13:43;;;;;;;10.90;8.80;;;17.90;99.90;;;;;;2613666;54;20921;-76
2022/06/27 17:19:31;;;;;;;9.73;8.70;;;17.80;99.90;;;;;;2613293;54;20401;-75
2022/06/27 17:25:18;;;;;;;9.30;8.50;;;17.70;99.90;;;;;;2612268;54;20252;-76
2022/06/27 17:31:06;;;;;;;8.90;8.20;;;17.50;99.90;;;;;;2613063;54;20128;-75
2022/06/27 17:36:54;;;;;;;11.97;10.97;;;17.30;99.90;;;;;;2613097;54;20162;-75
2022/06/27 17:42:42;;;;;;;11.80;10.80;;;17.20;99.90;;;;;;2613957;54;20164;-76
2022/06/27 17:48:30;;;;;;;12.77;11.50;;;17.40;99.90;;;;;;2614130;54;20388;-75
2022/06/27 17:54:18;;;;;;;13.17;11.87;;;17.60;99.90;;;;;;2613635;54;20144;-76
2022/06/27 18:00:09;;;;;;;14.37;13.17;;;18.00;99.90;;;;;;2613576;54;20660;-76
2022/06/27 18:06:04;;;;;;;8.03;7.20;;;18.20;99.90;;;;;;2612403;39;20769;-76
2022/06/27 18:11:51;;;;;;;9.80;8.90;;;18.00;99.90;;;;;;2612630;54;20131;-76
2022/06/27 18:17:38;;;;;;;9.00;8.10;;;17.70;99.90;;;;;;2611960;54;20720;-76
2022/06/27 18:23:25;;;;;;;11.70;10.43;;;17.60;99.90;;;;;;2612655;54;20280;-76
2022/06/27 18:29:13;;;;;;;12.60;11.03;;;17.60;99.90;;;;;;2612223;54;20416;-76
2022/06/27 18:35:00;;;;;;;13.23;12.03;;;17.50;99.90;;;;;;2612245;46;20449;-77
2022/06/27 18:40:48;;;;;;;9.97;9.00;;;17.50;99.90;;;;;;2611981;54;20147;-77
2022/06/27 18:46:36;;;;;;;9.67;8.70;;;17.60;99.90;;;;;;2613242;54;20136;-76
2022/06/27 18:52:24;;;;;;;7.70;6.90;;;17.50;99.90;;;;;;2613587;39;20770;-77
2022/06/27 18:58:14;;;;;;;8.30;5.17;;;17.40;99.90;;;;;;2614551;54;20668;-77
2022/06/27 19:14:18;;;;;;;5.97;4.73;;;17.40;99.90;;;;;;2612389;54;20392;-76
2022/06/27 19:20:06;;;;;;;6.03;5.10;;;17.40;99.90;;;;;;2611208;54;20240;-77
2022/06/27 19:25:53;;;;;;;10.40;5.13;;;17.40;99.90;;;;;;2610047;54;20407;-77
2022/06/27 19:31:40;;;;;;;7.23;6.40;;;17.30;99.90;;;;;;2611630;39;20798;-80
2022/06/27 19:37:28;;;;;;;7.07;5.87;;;17.20;99.90;;;;;;2611916;54;20493;-76
2022/06/27 19:43:15;;;;;;;7.63;6.93;;;16.90;99.90;;;;;;2611758;54;20419;-77
2022/06/27 19:49:03;;;;;;;9.00;7.10;;;16.90;99.90;;;;;;2612382;54;20136;-76
2022/06/27 19:54:50;;;;;;;8.40;7.60;;;16.50;99.90;;;;;;2611742;54;20517;-77
2022/06/27 20:00:38;;;;;;;9.07;7.20;;;16.30;99.90;;;;;;2611951;54;20135;-77
2022/06/27 20:06:45;;;;;;;9.43;8.57;;;16.20;99.90;;;;;;2610616;39;20638;-76
2022/06/27 20:12:35;;;;;;;13.73;8.60;;;16.20;99.90;;;;;;2611585;54;20426;-76
2022/06/27 20:18:22;;;;;;;9.63;8.80;;;16.10;99.90;;;;;;2610206;54;20362;-76
2022/06/27 20:24:10;;;;;;;9.20;8.30;;;16.00;99.90;;;;;;2612247;31;20954;-76
2022/06/27 20:29:58;;;;;;;9.60;8.70;;;15.90;99.90;;;;;;2611569;54;20386;-76
2022/06/27 20:35:46;;;;;;;9.63;8.70;;;15.80;99.90;;;;;;2611733;39;21153;-75
2022/06/27 20:41:33;;;;;;;10.13;9.13;;;15.50;99.90;;;;;;2613490;54;20453;-76
2022/06/27 20:47:21;;;;;;;13.83;8.87;;;15.30;99.90;;;;;;2613434;54;20122;-75
2022/06/27 20:53:09;;;;;;;9.27;8.37;;;15.20;99.90;;;;;;2613953;39;20852;-75
2022/06/27 20:58:57;;;;;;;8.97;8.07;;;15.30;99.90;;;;;;2613784;54;20378;-75
2022/06/27 21:14:15;;;;;;;12.67;9.37;;;15.10;99.90;;;;;;2614357;54;21405;-75
2022/06/27 21:20:04;;;;;;;8.93;7.80;;;15.00;99.90;;;;;;2611954;39;20865;-75
2022/06/27 21:25:51;;;;;;;8.87;7.60;;;14.80;99.90;;;;;;2609840;54;20379;-74
2022/06/27 21:34:59;;;;;;;10.77;9.20;;;14.80;99.90;;;;;;2612287;54;20496;-75
2022/06/27 21:40:46;;;;;;;9.73;8.40;;;14.80;99.90;;;;;;2612221;54;20191;-76
2022/06/27 21:46:34;;;;;;;10.03;9.03;;;14.60;99.90;;;;;;2613298;54;20173;-75
2022/06/27 21:58:27;;;;;;;11.43;8.10;;;14.60;99.90;;;;;;2614897;54;20411;-75
2022/06/27 22:14:34;;;;;;;17.33;9.53;;;14.40;99.90;;;;;;2612990;54;20407;-75
2022/06/27 22:20:21;;;;;;;11.30;10.30;;;14.40;99.90;;;;;;2613129;54;20172;-75
2022/06/27 22:26:08;;;;;;;11.10;10.00;;;14.40;99.90;;;;;;2612788;54;20182;-75
2022/06/27 22:31:56;;;;;;;9.93;8.93;;;14.50;99.90;;;;;;2613103;54;20437;-75
2022/06/27 22:37:43;;;;;;;10.17;9.17;;;14.50;99.90;;;;;;2613871;54;20734;-76
2022/06/27 22:43:30;;;;;;;9.87;8.90;;;14.20;99.90;;;;;;2613445;54;20385;-76
2022/06/27 22:49:18;;;;;;;10.70;9.03;;;14.30;99.90;;;;;;2615140;54;20166;-76
2022/06/27 22:55:06;;;;;;;9.93;9.00;;;14.10;99.90;;;;;;2614428;54;20122;-75
2022/06/27 23:00:53;;;;;;;10.00;9.03;;;13.90;99.90;;;;;;2615297;54;20395;-74
2022/06/27 23:06:59;;;;;;;11.53;8.63;;;13.90;99.90;;;;;;2613472;54;20162;-75
2022/06/27 23:12:47;;;;;;;10.17;9.07;;;13.90;99.90;;;;;;2612913;54;20466;-74
2022/06/27 23:18:34;;;;;;;13.80;9.93;;;13.80;99.90;;;;;;2612903;39;20801;-74
2022/06/27 23:24:21;;;;;;;13.07;11.40;;;13.70;99.90;;;;;;2613285;54;20354;-75
2022/06/27 23:30:09;;;;;;;11.30;10.10;;;13.70;99.90;;;;;;2612784;39;20366;-75
2022/06/27 23:35:56;;;;;;;15.90;10.37;;;13.50;99.90;;;;;;2613797;54;20471;-75
2022/06/27 23:41:44;;;;;;;11.67;9.90;;;13.60;99.90;;;;;;2615104;39;20752;-74
2022/06/27 23:47:31;;;;;;;12.63;10.03;;;13.60;99.90;;;;;;2614134;54;20114;-75
2022/06/27 23:53:19;;;;;;;10.47;9.47;;;13.50;99.90;;;;;;2615033;54;20134;-75
2022/06/27 23:59:08;;;;;;;12.03;10.57;;;13.40;99.90;;;;;;2614295;54;20155;-75
